Napakiak Information

FAA: WNA - ICAO: PANA

Napakiak (Airport) Location

State Alaska
County Bethel
City Napakiak
Napakiak (Airport) is 0 miles west of Napakiak, AK.
Latitude 60-41-25.2000N
Longitude 161-58-42.6000W
Elevation 16ft

Napakiak METARs

METAR PANA 251756Z AUTO 16006KT 10SM OVC075 M14/M16 A3014 RMK AO2 SLP207 T11391156 11139 21194 51010 FZRANO TSNO
Altimeter 30.14"
Temperature -13.9°C (7.0°F)
Wind 160° at 6KT
Clouds overcast at 7,500ft
Visibility 10.0mi
Time observed: 2022-01-25T17:56:00Z

Napakiak (Airport) Details

Status Operational
Activation September 1976
Ownership Public
Usage Public
Chart BETHEL
ATC on-site No
Beacon schedule N/A
Beacon color clear green

Napakiak (Airport) Contacts

Owner ALASKA DOT&PF CENTRAL REGION
Owner address PO BOX 196900, ANCHORAGE, AK 99519-6900
Owner phone 907-266-1735
Manager N/A
Manager address N/A, N/A
Manager phone N/A

Napakiak Radio Frequencies

Napakiak (Airport) Radio Frequencies

UNICOM N/A
Common traffic advisory frequency (CTAF) 122.9